Time;durP1;ratioP1;P1;durP2;ratioP2;P2;SDS_P1;SDS_P2;PMS_P1;PMS_P2;Temp;Humidity;BMP_temperature;BMP_pressure;BME280_temperature;BME280_humidity;BME280_pressure;Samples;Min_cycle;Max_cycle;Signal;HPM_P1;HPM_P2
2022/08/30 00:01:04;;;;;;;7.88;5.50;;;20.50;99.90;;;;;;5003169;28;20500;-80
2022/08/30 00:03:44;;;;;;;8.07;4.63;;;20.40;99.90;;;;;;5013488;28;20099;-80
2022/08/30 00:06:13;;;;;;;8.18;5.82;;;20.40;99.90;;;;;;5010993;28;20046;-79
2022/08/30 00:08:41;;;;;;;9.30;5.65;;;20.40;99.90;;;;;;5006221;28;20129;-79
2022/08/30 00:11:11;;;;;;;6.78;5.57;;;20.50;99.90;;;;;;4990771;28;20503;-80
2022/08/30 00:13:40;;;;;;;7.05;5.63;;;20.40;99.90;;;;;;5008320;28;20071;-80
2022/08/30 00:16:07;;;;;;;10.45;5.90;;;20.30;99.90;;;;;;4992012;28;20080;-81
2022/08/30 00:18:34;;;;;;;10.98;5.85;;;20.30;99.90;;;;;;5011101;28;20050;-79
2022/08/30 00:21:02;;;;;;;11.52;5.95;;;20.40;99.90;;;;;;5011914;28;20061;-78
2022/08/30 00:23:30;;;;;;;7.68;5.57;;;20.30;99.90;;;;;;5014690;28;20493;-79
2022/08/30 00:25:57;;;;;;;8.32;5.60;;;20.20;99.90;;;;;;5014675;28;20060;-79
2022/08/30 00:28:24;;;;;;;9.63;5.40;;;20.20;99.90;;;;;;4998499;28;20053;-80
2022/08/30 00:30:50;;;;;;;13.63;5.93;;;20.20;99.90;;;;;;4994742;28;20050;-78
2022/08/30 00:33:17;;;;;;;10.95;5.47;;;20.10;99.90;;;;;;5003329;28;20610;-79
2022/08/30 00:35:44;;;;;;;9.77;4.95;;;20.00;99.90;;;;;;5018232;28;20052;-79
2022/08/30 00:38:12;;;;;;;7.88;5.32;;;20.00;99.90;;;;;;5017449;28;20057;-79
2022/08/30 00:40:43;;;;;;;8.02;5.60;;;20.00;99.90;;;;;;5015882;28;20069;-80
2022/08/30 00:43:26;;;;;;;7.53;5.45;;;20.00;99.90;;;;;;5014708;28;20100;-80
2022/08/30 00:45:54;;;;;;;7.43;5.20;;;20.00;99.90;;;;;;5002053;28;20472;-80
2022/08/30 00:48:22;;;;;;;7.72;5.65;;;20.00;99.90;;;;;;5001182;28;20050;-80
2022/08/30 00:50:52;;;;;;;11.65;5.70;;;20.00;99.90;;;;;;5011389;28;20084;-80
2022/08/30 00:53:35;;;;;;;12.35;5.60;;;20.10;99.90;;;;;;5012641;28;20065;-80
2022/08/30 00:56:04;;;;;;;10.88;6.05;;;20.10;99.90;;;;;;5008350;28;20128;-80
2022/08/30 00:58:35;;;;;;;12.25;6.28;;;20.00;99.90;;;;;;4995380;28;20153;-80
2022/08/30 01:01:03;;;;;;;7.80;6.00;;;19.90;99.90;;;;;;5006044;28;20077;-79
2022/08/30 01:03:31;;;;;;;10.55;5.45;;;19.90;99.90;;;;;;4988694;28;20073;-79
2022/08/30 01:05:59;;;;;;;10.00;5.82;;;19.90;99.90;;;;;;5004034;28;20050;-81
2022/08/30 01:08:26;;;;;;;10.18;5.72;;;19.80;99.90;;;;;;5006256;28;20081;-81
2022/08/30 01:10:54;;;;;;;13.70;5.80;;;19.80;99.90;;;;;;5011056;28;20050;-78
2022/08/30 01:13:22;;;;;;;7.05;5.50;;;19.70;99.90;;;;;;5007528;28;20411;-79
2022/08/30 01:15:49;;;;;;;7.15;5.13;;;19.80;99.90;;;;;;5003516;28;20050;-79
2022/08/30 01:18:17;;;;;;;10.60;5.70;;;19.70;99.90;;;;;;4998570;28;20073;-79
2022/08/30 01:20:57;;;;;;;;;;;19.70;99.90;;;;;;4998249;28;20047;-79
2022/08/30 01:23:25;;;;;;;7.10;5.47;;;19.70;99.90;;;;;;5010411;28;19972;-80
2022/08/30 01:25:54;;;;;;;8.03;6.53;;;19.60;99.90;;;;;;5014484;28;20508;-79
2022/08/30 01:28:23;;;;;;;6.82;5.78;;;19.50;99.90;;;;;;5013493;28;20133;-79
2022/08/30 01:30:50;;;;;;;9.82;6.15;;;19.60;99.90;;;;;;5011536;28;20085;-79
2022/08/30 01:33:18;;;;;;;12.40;5.40;;;19.60;99.90;;;;;;5011793;28;20532;-79
2022/08/30 01:35:53;;;;;;;7.07;5.55;;;19.60;99.90;;;;;;5010201;28;20504;-79
2022/08/30 01:38:23;;;;;;;7.55;5.30;;;19.60;99.90;;;;;;5002231;28;20128;-79
2022/08/30 01:40:55;;;;;;;;;;;19.60;99.90;;;;;;5005102;28;20133;-80
2022/08/30 01:43:22;;;;;;;6.60;5.95;;;19.50;99.90;;;;;;5006488;28;19922;-79
2022/08/30 01:45:48;;;;;;;8.43;5.80;;;19.50;99.90;;;;;;5008390;28;20054;-79
2022/08/30 01:48:15;;;;;;;9.80;6.50;;;19.40;99.90;;;;;;5004784;28;20046;-79
2022/08/30 01:50:42;;;;;;;10.90;6.50;;;19.40;99.90;;;;;;5004002;28;20047;-79
2022/08/30 01:53:09;;;;;;;9.85;5.15;;;19.40;99.90;;;;;;5002773;28;20125;-79
2022/08/30 01:55:39;;;;;;;7.80;5.85;;;19.40;99.90;;;;;;5009559;28;20045;-80
2022/08/30 01:58:06;;;;;;;9.55;5.90;;;19.40;99.90;;;;;;5010968;28;20082;-80
2022/08/30 02:00:32;;;;;;;9.70;5.68;;;19.40;99.90;;;;;;5011274;28;20058;-80
2022/08/30 02:02:59;;;;;;;9.05;6.53;;;19.30;99.90;;;;;;5011986;28;20109;-79
2022/08/30 02:05:26;;;;;;;10.07;5.90;;;19.40;99.90;;;;;;5014818;28;20081;-79
2022/08/30 02:07:53;;;;;;;10.68;6.00;;;19.30;99.90;;;;;;5015749;28;20052;-80
2022/08/30 02:10:20;;;;;;;9.85;5.85;;;19.40;99.90;;;;;;5018562;28;20074;-79
2022/08/30 02:12:47;;;;;;;11.02;6.38;;;19.30;99.90;;;;;;5005230;28;20076;-78
2022/08/30 02:15:13;;;;;;;9.18;5.88;;;19.30;99.90;;;;;;5019490;28;20073;-82
2022/08/30 02:17:41;;;;;;;11.35;6.40;;;19.30;99.90;;;;;;5012610;28;20048;-80
2022/08/30 02:20:08;;;;;;;9.77;5.88;;;19.30;99.90;;;;;;5008758;28;20050;-80
2022/08/30 02:22:36;;;;;;;8.68;6.55;;;19.30;99.90;;;;;;5001165;28;20089;-78
2022/08/30 02:25:05;;;;;;;8.93;6.13;;;19.30;99.90;;;;;;5001895;28;20495;-79
2022/08/30 02:27:36;;;;;;;8.18;5.70;;;19.20;99.90;;;;;;5007256;28;20053;-79
2022/08/30 02:30:06;;;;;;;8.75;5.80;;;19.20;99.90;;;;;;5006520;28;20129;-80
2022/08/30 02:32:32;;;;;;;7.53;5.50;;;19.10;99.90;;;;;;4987908;28;20100;-79
2022/08/30 02:34:59;;;;;;;7.32;5.80;;;19.10;99.90;;;;;;5005164;28;20085;-79
2022/08/30 02:37:26;;;;;;;7.00;5.88;;;19.10;99.90;;;;;;5006759;28;20064;-78
2022/08/30 02:39:53;;;;;;;8.60;5.60;;;19.00;99.90;;;;;;4997164;28;20173;-80
2022/08/30 02:42:19;;;;;;;10.65;6.00;;;19.10;99.90;;;;;;5003784;28;20081;-79
2022/08/30 02:44:46;;;;;;;12.50;6.38;;;19.00;99.90;;;;;;5002471;28;20069;-78
2022/08/30 02:47:13;;;;;;;7.93;6.20;;;19.00;99.90;;;;;;5003864;28;20085;-79
2022/08/30 02:49:39;;;;;;;8.95;5.85;;;19.10;99.90;;;;;;5006650;28;20133;-79
2022/08/30 02:52:06;;;;;;;8.10;5.47;;;19.00;99.90;;;;;;5002952;28;20058;-78
2022/08/30 02:54:33;;;;;;;7.80;5.30;;;19.00;99.90;;;;;;4998768;28;20138;-79
2022/08/30 02:57:05;;;;;;;8.52;5.82;;;19.00;99.90;;;;;;5011965;28;20049;-80
2022/08/30 02:59:32;;;;;;;8.57;6.68;;;19.00;99.90;;;;;;5013765;28;20053;-79
2022/08/30 03:01:59;;;;;;;11.02;6.15;;;19.00;99.90;;;;;;5013187;28;20088;-79
2022/08/30 03:04:25;;;;;;;9.35;6.43;;;19.00;99.90;;;;;;4995181;28;20089;-80
2022/08/30 03:06:53;;;;;;;11.55;6.07;;;19.00;99.90;;;;;;4996044;28;20104;-80
2022/08/30 03:09:21;;;;;;;9.52;6.80;;;19.00;99.90;;;;;;4982718;28;20077;-79
2022/08/30 03:11:47;;;;;;;9.25;5.97;;;18.90;99.90;;;;;;4997234;28;20571;-78
2022/08/30 03:14:14;;;;;;;8.60;5.75;;;19.00;99.90;;;;;;5002525;28;20078;-79
2022/08/30 03:16:41;;;;;;;11.20;6.50;;;19.00;99.90;;;;;;5004054;28;20042;-79
2022/08/30 03:19:07;;;;;;;12.27;6.15;;;19.00;99.90;;;;;;5006099;28;20061;-80
2022/08/30 03:21:36;;;;;;;9.25;6.47;;;19.10;99.90;;;;;;4988069;28;20050;-79
2022/08/30 03:24:03;;;;;;;8.10;6.25;;;19.00;99.90;;;;;;5008013;28;20104;-80
2022/08/30 03:26:29;;;;;;;9.10;7.05;;;19.00;99.90;;;;;;5009089;28;20062;-80
2022/08/30 03:28:56;;;;;;;7.13;5.65;;;18.90;99.90;;;;;;5008980;28;20118;-79
2022/08/30 03:31:23;;;;;;;13.15;5.72;;;18.90;99.90;;;;;;5012792;28;20118;-78
2022/08/30 03:33:50;;;;;;;10.32;5.90;;;18.80;99.90;;;;;;5010557;28;20420;-80
2022/08/30 03:36:16;;;;;;;10.60;6.13;;;18.80;99.90;;;;;;5001373;28;20075;-79
2022/08/30 03:38:43;;;;;;;8.35;5.47;;;18.70;99.90;;;;;;5000443;28;20413;-79
2022/08/30 03:41:10;;;;;;;10.20;6.22;;;18.70;99.90;;;;;;4998092;28;20111;-80
2022/08/30 03:43:37;;;;;;;6.47;5.43;;;18.80;99.90;;;;;;5012658;28;20052;-78
2022/08/30 03:46:04;;;;;;;10.52;6.50;;;18.80;99.90;;;;;;5013367;28;20054;-79
2022/08/30 03:48:31;;;;;;;8.40;5.72;;;18.80;99.90;;;;;;5011732;28;20057;-78
2022/08/30 03:50:58;;;;;;;10.27;6.38;;;18.70;99.90;;;;;;5012325;28;20472;-79
2022/08/30 03:53:24;;;;;;;9.23;6.22;;;18.80;99.90;;;;;;5009918;28;20073;-78
2022/08/30 03:55:53;;;;;;;9.60;5.90;;;18.80;99.90;;;;;;4992271;28;20077;-80
2022/08/30 03:58:20;;;;;;;7.97;6.20;;;18.90;99.90;;;;;;5008428;28;20129;-79
2022/08/30 04:00:47;;;;;;;11.18;5.75;;;18.80;99.90;;;;;;5006073;28;20132;-80
2022/08/30 04:03:14;;;;;;;7.53;5.57;;;18.70;99.90;;;;;;5006869;28;20062;-80
2022/08/30 04:05:41;;;;;;;9.27;6.00;;;18.70;99.90;;;;;;5005309;28;20051;-79
2022/08/30 04:08:07;;;;;;;8.30;6.10;;;18.70;99.90;;;;;;5003501;28;20042;-80
2022/08/30 04:10:34;;;;;;;8.02;6.60;;;18.70;99.90;;;;;;5003904;28;20081;-79
2022/08/30 04:13:01;;;;;;;7.25;6.20;;;18.70;99.90;;;;;;5002268;28;20081;-79
2022/08/30 04:15:28;;;;;;;8.38;6.35;;;18.80;99.90;;;;;;5001613;28;20046;-79
2022/08/30 04:17:55;;;;;;;9.18;6.38;;;18.80;99.90;;;;;;5000855;28;20504;-78
2022/08/30 04:20:22;;;;;;;6.93;6.22;;;18.70;99.90;;;;;;5002814;28;20137;-79
2022/08/30 04:22:50;;;;;;;9.15;7.07;;;18.70;99.90;;;;;;4999069;28;20077;-80
2022/08/30 04:25:17;;;;;;;10.35;6.15;;;18.70;99.90;;;;;;4981280;28;20069;-78
2022/08/30 04:27:45;;;;;;;7.60;6.28;;;18.60;99.90;;;;;;5001875;28;20089;-80
2022/08/30 04:30:13;;;;;;;9.48;6.57;;;18.60;99.90;;;;;;5010755;28;20046;-79
2022/08/30 04:32:39;;;;;;;9.02;5.95;;;18.60;99.90;;;;;;5017905;28;20548;-79
2022/08/30 04:35:08;;;;;;;9.57;6.72;;;18.60;99.90;;;;;;5016878;28;20077;-79
2022/08/30 04:37:35;;;;;;;12.02;6.72;;;18.60;99.90;;;;;;5029862;28;20046;-80
2022/08/30 04:40:03;;;;;;;11.05;6.50;;;18.60;99.90;;;;;;5029382;28;20034;-81
2022/08/30 04:42:32;;;;;;;14.88;6.22;;;18.60;99.90;;;;;;5031517;28;20038;-79
2022/08/30 04:45:02;;;;;;;9.48;6.15;;;18.60;99.90;;;;;;5029404;28;20030;-80
2022/08/30 04:47:29;;;;;;;;;;;18.60;99.90;;;;;;5014394;28;20034;-81
2022/08/30 04:49:56;;;;;;;8.73;6.15;;;18.50;99.90;;;;;;5031415;28;20099;-79
2022/08/30 04:52:23;;;;;;;8.75;6.75;;;18.50;99.90;;;;;;5014336;28;20519;-79
2022/08/30 04:54:57;;;;;;;8.32;6.20;;;18.50;99.90;;;;;;5008108;28;20082;-81
2022/08/30 04:57:25;;;;;;;9.23;6.35;;;18.50;99.90;;;;;;4997649;28;20402;-77
2022/08/30 04:59:53;;;;;;;9.77;7.00;;;18.50;99.90;;;;;;5010681;28;20073;-79
2022/08/30 05:02:20;;;;;;;9.45;5.90;;;18.50;99.90;;;;;;5012173;28;20137;-79
2022/08/30 05:07:32;;;;;;;9.63;6.25;;;18.60;99.90;;;;;;5000288;28;20112;-80
2022/08/30 05:09:59;;;;;;;8.57;5.95;;;18.60;99.90;;;;;;5000178;28;20053;-79
2022/08/30 05:12:26;;;;;;;7.57;5.93;;;18.60;99.90;;;;;;4999697;28;20085;-79
2022/08/30 05:14:53;;;;;;;8.88;6.00;;;18.60;99.90;;;;;;4999292;28;20054;-79
2022/08/30 05:17:20;;;;;;;10.10;6.22;;;18.70;99.90;;;;;;5020725;28;20069;-78
2022/08/30 05:19:46;;;;;;;7.75;6.20;;;18.70;99.90;;;;;;5016290;28;20056;-78
2022/08/30 05:22:13;;;;;;;10.52;6.47;;;18.70;99.90;;;;;;5016705;28;20049;-79
2022/08/30 05:24:40;;;;;;;11.23;6.40;;;18.70;99.90;;;;;;4999103;28;20077;-79
2022/08/30 05:27:07;;;;;;;8.23;5.45;;;18.80;99.90;;;;;;5012239;28;20261;-79
2022/08/30 05:29:33;;;;;;;14.20;6.38;;;18.80;99.90;;;;;;5012842;28;20073;-78
2022/08/30 05:32:00;;;;;;;10.20;6.43;;;18.90;99.90;;;;;;5020407;28;20054;-79
2022/08/30 05:34:29;;;;;;;8.90;6.07;;;18.90;99.90;;;;;;5016119;28;20141;-78
2022/08/30 05:36:56;;;;;;;7.43;5.70;;;18.90;99.90;;;;;;5010976;28;20046;-79
2022/08/30 05:39:22;;;;;;;10.57;6.68;;;19.00;99.90;;;;;;5006753;28;20085;-79
2022/08/30 05:41:49;;;;;;;9.48;5.85;;;19.10;99.90;;;;;;5005124;28;20050;-79
2022/08/30 05:44:16;;;;;;;9.23;5.88;;;19.10;99.90;;;;;;5008348;28;20073;-80
2022/08/30 05:46:45;;;;;;;7.90;5.63;;;19.20;99.90;;;;;;5003596;28;20539;-80
2022/08/30 05:49:12;;;;;;;7.63;5.85;;;19.30;99.90;;;;;;4984136;28;20500;-79
2022/08/30 05:51:38;;;;;;;8.40;5.68;;;19.30;99.90;;;;;;5001059;28;20073;-78
2022/08/30 05:54:11;;;;;;;7.93;5.85;;;19.20;99.90;;;;;;5000464;28;20049;-80
2022/08/30 05:56:39;;;;;;;7.18;5.50;;;19.30;99.90;;;;;;5013852;28;20431;-79
2022/08/30 05:59:07;;;;;;;9.77;6.88;;;19.30;99.90;;;;;;4996990;28;20058;-79
2022/08/30 06:01:38;;;;;;;10.07;5.70;;;19.30;99.90;;;;;;5015706;28;20049;-80
2022/08/30 06:04:07;;;;;;;6.40;5.60;;;19.30;99.90;;;;;;5015671;28;20052;-80
2022/08/30 06:06:36;;;;;;;11.68;6.20;;;19.30;99.90;;;;;;5014358;28;20057;-81
2022/08/30 06:09:04;;;;;;;7.65;5.80;;;19.30;99.90;;;;;;4997236;28;20087;-80
2022/08/30 06:11:32;;;;;;;10.18;6.20;;;19.30;99.90;;;;;;4997655;28;20124;-80
2022/08/30 06:14:00;;;;;;;8.85;6.72;;;19.30;99.90;;;;;;5000481;28;20082;-80
2022/08/30 06:16:27;;;;;;;8.57;5.72;;;19.30;99.90;;;;;;5002524;28;20100;-80
2022/08/30 06:18:56;;;;;;;7.85;5.53;;;19.30;99.90;;;;;;5005951;28;20061;-79
2022/08/30 06:21:35;;;;;;;8.68;5.72;;;19.40;99.90;;;;;;5006348;28;20129;-79
2022/08/30 06:24:03;;;;;;;9.05;6.35;;;19.40;99.90;;;;;;5003898;28;20118;-80
2022/08/30 06:26:31;;;;;;;8.93;6.50;;;19.40;99.90;;;;;;5004905;28;20077;-78
2022/08/30 06:29:03;;;;;;;8.45;5.63;;;19.50;99.90;;;;;;4988357;28;20085;-79
2022/08/30 06:31:29;;;;;;;9.30;5.45;;;19.50;99.90;;;;;;5013962;28;20046;-80
2022/08/30 06:33:56;;;;;;;8.90;5.57;;;19.60;99.90;;;;;;5009927;28;20049;-79
2022/08/30 06:36:24;;;;;;;7.63;6.22;;;19.60;99.90;;;;;;5002443;28;20077;-78
2022/08/30 06:38:53;;;;;;;9.77;6.05;;;19.70;99.90;;;;;;5011568;28;20104;-80
2022/08/30 06:41:27;;;;;;;9.13;6.35;;;19.70;99.90;;;;;;5010375;28;20128;-78
2022/08/30 06:43:56;;;;;;;8.68;6.15;;;19.80;99.90;;;;;;4996676;28;20084;-80
2022/08/30 06:46:26;;;;;;;7.25;6.03;;;19.80;99.90;;;;;;4995738;28;20050;-80
2022/08/30 06:48:54;;;;;;;9.27;6.18;;;19.90;99.90;;;;;;4996918;28;20058;-80
2022/08/30 06:51:28;;;;;;;8.63;7.07;;;20.00;99.90;;;;;;5011845;28;20096;-79
2022/08/30 06:53:56;;;;;;;7.78;5.97;;;19.90;99.90;;;;;;5014209;28;20089;-80
2022/08/30 06:56:23;;;;;;;9.32;6.35;;;20.00;99.90;;;;;;5008716;28;20100;-81
2022/08/30 06:58:51;;;;;;;12.65;6.20;;;20.00;99.90;;;;;;5009064;28;20045;-80
2022/08/30 07:01:21;;;;;;;7.90;6.00;;;20.10;99.90;;;;;;4993619;28;20488;-80
2022/08/30 07:03:49;;;;;;;11.52;6.65;;;20.00;99.90;;;;;;4996390;28;20074;-80
2022/08/30 07:06:17;;;;;;;12.35;7.68;;;20.10;99.90;;;;;;4996465;28;20073;-80
2022/08/30 07:08:45;;;;;;;17.13;8.00;;;20.10;99.90;;;;;;5001640;28;20058;-80
2022/08/30 07:11:12;;;;;;;9.63;7.68;;;20.10;99.90;;;;;;5004683;28;20109;-80
2022/08/30 07:13:39;;;;;;;16.70;8.70;;;20.20;99.90;;;;;;4993939;28;20132;-79
2022/08/30 07:16:13;;;;;;;17.17;9.00;;;20.20;99.90;;;;;;5006054;28;20595;-81
2022/08/30 07:18:55;;;;;;;17.98;8.85;;;20.20;99.90;;;;;;5001685;28;20050;-80
2022/08/30 07:21:26;;;;;;;14.85;7.43;;;20.30;99.90;;;;;;4999333;28;20058;-80
2022/08/30 07:23:54;;;;;;;16.45;8.70;;;20.40;99.90;;;;;;4984439;28;20046;-80
2022/08/30 07:26:36;;;;;;;14.45;8.25;;;20.40;99.90;;;;;;5000373;28;20129;-80
2022/08/30 07:29:03;;;;;;;20.02;8.20;;;20.40;99.90;;;;;;4997103;28;20054;-79
2022/08/30 07:31:32;;;;;;;9.45;6.38;;;20.40;99.90;;;;;;5000669;28;20512;-80
2022/08/30 07:33:58;;;;;;;14.18;8.15;;;20.50;99.90;;;;;;5001024;28;20073;-79
2022/08/30 07:36:25;;;;;;;14.80;7.60;;;20.60;99.90;;;;;;5001583;28;20463;-80
2022/08/30 07:38:53;;;;;;;14.60;7.90;;;20.60;99.90;;;;;;4999759;28;20093;-79
2022/08/30 07:41:30;;;;;;;15.73;6.88;;;20.70;99.90;;;;;;5003800;28;20042;-80
2022/08/30 07:43:57;;;;;;;14.02;7.15;;;20.70;99.90;;;;;;5000634;28;20056;-79
2022/08/30 07:46:24;;;;;;;15.18;7.93;;;20.80;99.90;;;;;;5005344;28;20046;-79
2022/08/30 07:48:53;;;;;;;15.68;7.32;;;20.80;99.90;;;;;;4981176;28;20061;-80
2022/08/30 07:51:22;;;;;;;14.32;7.40;;;20.80;99.90;;;;;;5007761;28;20038;-80
2022/08/30 07:53:51;;;;;;;13.60;7.38;;;20.90;99.90;;;;;;5004993;28;20065;-78
2022/08/30 07:56:17;;;;;;;10.88;6.18;;;21.00;99.90;;;;;;4999029;28;20052;-80
2022/08/30 07:58:44;;;;;;;14.90;6.80;;;21.10;99.90;;;;;;5003216;28;20531;-78
2022/08/30 08:01:12;;;;;;;14.07;6.80;;;21.10;99.90;;;;;;5003161;28;20077;-79
2022/08/30 08:03:40;;;;;;;13.95;6.95;;;21.20;99.90;;;;;;5007044;28;20475;-80
2022/08/30 08:06:09;;;;;;;11.63;7.10;;;21.30;99.90;;;;;;5008028;28;20145;-79
2022/08/30 08:08:37;;;;;;;11.48;6.28;;;21.40;99.90;;;;;;4991125;28;20713;-80
2022/08/30 08:11:13;;;;;;;12.13;7.70;;;21.50;99.90;;;;;;5009277;28;20458;-79
2022/08/30 08:13:43;;;;;;;10.93;7.65;;;21.60;99.90;;;;;;5006791;28;20117;-80
2022/08/30 08:16:24;;;;;;;8.60;6.82;;;21.60;99.90;;;;;;4990015;28;20042;-79
2022/08/30 08:18:51;;;;;;;10.23;6.68;;;21.70;99.90;;;;;;5009077;28;20451;-80
2022/08/30 08:21:19;;;;;;;10.93;6.05;;;21.80;99.90;;;;;;5003733;28;20060;-80
2022/08/30 08:23:45;;;;;;;10.18;6.38;;;21.90;99.90;;;;;;5005777;28;20130;-78
2022/08/30 08:26:12;;;;;;;11.05;6.50;;;22.10;99.90;;;;;;5003172;28;20096;-79
2022/08/30 08:28:39;;;;;;;12.27;7.07;;;22.20;99.90;;;;;;5007821;28;20088;-78
2022/08/30 08:31:21;;;;;;;11.63;6.95;;;22.20;99.90;;;;;;5005612;28;20046;-79
2022/08/30 08:33:51;;;;;;;14.55;6.80;;;22.30;99.90;;;;;;4994418;28;20046;-79
2022/08/30 08:36:17;;;;;;;12.82;7.28;;;22.30;99.90;;;;;;5004312;28;20129;-78
2022/08/30 08:38:44;;;;;;;13.18;6.53;;;22.40;99.90;;;;;;5006326;28;20126;-79
2022/08/30 08:41:35;;;;;;;8.43;5.97;;;22.40;99.90;;;;;;5001893;28;20097;-78
2022/08/30 08:44:19;;;;;;;11.85;7.70;;;22.60;99.90;;;;;;5006773;28;20058;-79
2022/08/30 08:47:05;;;;;;;9.60;6.50;;;22.70;99.90;;;;;;5007183;28;20086;-78
2022/08/30 08:49:34;;;;;;;9.80;6.60;;;22.90;99.90;;;;;;4993684;28;20050;-79
2022/08/30 08:54:58;;;;;;;8.30;6.60;;;23.10;99.90;;;;;;5003538;28;20230;-79
2022/08/30 08:57:30;;;;;;;8.40;5.78;;;23.20;99.90;;;;;;4991860;28;20125;-82
2022/08/30 08:59:57;;;;;;;8.48;6.40;;;23.30;99.90;;;;;;4999212;28;20130;-81
2022/08/30 09:02:28;;;;;;;8.57;7.07;;;23.40;99.90;;;;;;4981052;28;20057;-79
2022/08/30 09:05:00;;;;;;;10.32;7.57;;;23.40;99.90;;;;;;5000718;28;20508;-79
2022/08/30 09:07:33;;;;;;;18.48;7.43;;;23.30;99.90;;;;;;5001282;28;20081;-79
2022/08/30 09:10:00;;;;;;;10.02;8.10;;;23.40;99.90;;;;;;4997211;28;20133;-79
2022/08/30 09:12:27;;;;;;;11.90;7.88;;;23.40;99.90;;;;;;4992467;28;20124;-79
2022/08/30 09:15:02;;;;;;;12.23;7.68;;;23.30;99.90;;;;;;4999097;28;20043;-79
2022/08/30 09:17:29;;;;;;;11.25;7.15;;;23.40;99.90;;;;;;5002205;28;20042;-79
2022/08/30 09:19:59;;;;;;;10.73;7.93;;;23.40;99.90;;;;;;4999235;28;20070;-78
2022/08/30 09:22:36;;;;;;;10.73;6.95;;;23.40;99.90;;;;;;5005101;28;20120;-79
2022/08/30 09:25:17;;;;;;;10.32;6.45;;;23.40;99.90;;;;;;5002562;28;20053;-78
2022/08/30 09:27:46;;;;;;;7.50;6.40;;;23.50;99.90;;;;;;5004310;28;20125;-77
2022/08/30 09:30:28;;;;;;;12.65;6.55;;;23.50;99.90;;;;;;5002504;28;20418;-82
2022/08/30 09:32:58;;;;;;;11.00;6.93;;;23.50;99.90;;;;;;5006835;28;20084;-81
2022/08/30 09:35:33;;;;;;;10.15;8.00;;;23.50;99.90;;;;;;4989655;28;20133;-79
2022/08/30 09:38:09;;;;;;;13.98;6.32;;;23.50;99.90;;;;;;5005248;28;20128;-79
2022/08/30 09:40:42;;;;;;;11.23;6.57;;;23.50;99.90;;;;;;5003066;28;20050;-78
2022/08/30 09:43:18;;;;;;;9.43;6.20;;;23.50;99.90;;;;;;4992244;28;20513;-80
2022/08/30 09:46:06;;;;;;;10.93;6.60;;;23.60;99.90;;;;;;5012170;28;20065;-84
2022/08/30 09:48:33;;;;;;;12.10;6.95;;;23.60;99.90;;;;;;5005252;28;20111;-85
2022/08/30 09:51:09;;;;;;;10.98;6.03;;;23.50;99.90;;;;;;5011395;28;20054;-82
2022/08/30 09:53:51;;;;;;;14.05;5.95;;;23.60;99.90;;;;;;5005895;28;20096;-82
2022/08/30 09:56:41;;;;;;;14.52;6.05;;;23.70;99.90;;;;;;5002727;28;20061;-83
2022/08/30 09:59:45;;;;;;;8.82;5.43;;;23.70;99.90;;;;;;5004435;28;20097;-82
2022/08/30 10:02:12;;;;;;;9.35;5.43;;;23.80;99.90;;;;;;5005349;28;20495;-82
2022/08/30 10:04:51;;;;;;;10.00;5.75;;;23.80;99.90;;;;;;5008379;28;20050;-82
2022/08/30 10:07:35;;;;;;;14.27;5.72;;;23.90;99.90;;;;;;5004837;28;20077;-80
2022/08/30 10:10:09;;;;;;;10.88;5.90;;;24.00;99.90;;;;;;5007006;28;20081;-82
2022/08/30 10:12:41;;;;;;;7.50;5.03;;;24.00;99.90;;;;;;5009686;28;20129;-82
2022/08/30 10:15:16;;;;;;;7.68;4.88;;;24.10;99.90;;;;;;4997114;28;20552;-80
2022/08/30 10:18:01;;;;;;;9.60;5.75;;;24.30;99.90;;;;;;4983312;28;20054;-83
2022/08/30 10:20:40;;;;;;;9.50;5.53;;;24.30;99.90;;;;;;5007465;28;20120;-81
2022/08/30 10:23:21;;;;;;;13.10;5.40;;;24.40;99.90;;;;;;5010429;28;20076;-82
2022/08/30 10:26:07;;;;;;;10.27;5.40;;;24.40;99.90;;;;;;5007358;28;20049;-82
2022/08/30 10:28:36;;;;;;;7.68;5.82;;;24.40;99.90;;;;;;5004550;28;20092;-84
2022/08/30 10:31:33;;;;;;;17.53;5.60;;;24.40;99.90;;;;;;4992144;28;20073;-82
2022/08/30 10:34:08;;;;;;;8.02;5.22;;;24.50;99.90;;;;;;4999071;28;20133;-83
2022/08/30 10:36:45;;;;;;;10.70;5.88;;;24.50;99.90;;;;;;5001888;28;20534;-82
2022/08/30 10:39:17;;;;;;;13.45;5.75;;;24.60;99.90;;;;;;5007779;28;20594;-83
2022/08/30 10:42:07;;;;;;;8.50;5.20;;;24.70;99.90;;;;;;5004752;28;20052;-81
2022/08/30 10:44:38;;;;;;;;;;;24.70;99.90;;;;;;5009916;28;20049;-83
2022/08/30 10:47:26;;;;;;;10.15;4.85;;;24.70;99.90;;;;;;4986169;28;19925;-84
2022/08/30 10:50:03;;;;;;;6.78;4.70;;;24.70;99.90;;;;;;5000056;28;20137;-80
2022/08/30 10:52:38;;;;;;;9.00;4.63;;;24.90;99.90;;;;;;5004773;28;20128;-80
2022/08/30 10:55:24;;;;;;;10.70;4.88;;;24.90;99.90;;;;;;5004498;28;20046;-80
2022/08/30 10:57:51;;;;;;;9.85;4.68;;;24.90;99.90;;;;;;5005211;28;20085;-83
2022/08/30 11:00:47;;;;;;;8.25;4.32;;;24.80;99.90;;;;;;5006550;28;20542;-83
2022/08/30 11:03:22;;;;;;;6.18;4.47;;;24.90;99.90;;;;;;4991867;28;20574;-80
2022/08/30 11:06:13;;;;;;;8.02;4.72;;;24.90;99.90;;;;;;5001199;28;20081;-80
2022/08/30 11:09:05;;;;;;;6.28;4.45;;;25.00;99.90;;;;;;5002873;28;20073;-81
2022/08/30 11:12:12;;;;;;;5.93;4.60;;;25.10;99.90;;;;;;5004230;28;20129;-82
2022/08/30 11:14:43;;;;;;;6.95;4.80;;;25.10;99.90;;;;;;5005922;28;20504;-80
2022/08/30 11:17:43;;;;;;;9.38;4.20;;;25.10;99.90;;;;;;4994955;28;20041;-80
2022/08/30 11:20:44;;;;;;;7.25;5.05;;;25.20;99.90;;;;;;5004927;28;20074;-84
2022/08/30 11:23:17;;;;;;;7.10;4.90;;;25.30;99.90;;;;;;4987572;28;20077;-81
2022/08/30 11:25:52;;;;;;;4.70;4.18;;;25.40;99.90;;;;;;5007182;28;20064;-81
2022/08/30 11:28:36;;;;;;;9.07;4.87;;;25.50;99.90;;;;;;4999582;28;20049;-81
2022/08/30 11:31:22;;;;;;;5.97;4.22;;;25.50;99.90;;;;;;4999527;28;20134;-81
2022/08/30 11:33:56;;;;;;;6.05;4.18;;;25.60;99.90;;;;;;4995122;28;20130;-85
2022/08/30 11:36:31;;;;;;;7.75;4.30;;;25.60;99.90;;;;;;5008592;28;20416;-81
2022/08/30 11:39:09;;;;;;;8.65;4.50;;;25.70;99.90;;;;;;5013621;28;20069;-85
2022/08/30 11:41:44;;;;;;;9.82;4.15;;;25.80;99.90;;;;;;5012900;28;20563;-83
2022/08/30 11:44:30;;;;;;;11.48;4.75;;;25.80;99.90;;;;;;5009537;28;20050;-83
2022/08/30 11:47:18;;;;;;;4.65;3.88;;;25.80;99.90;;;;;;5008231;28;20082;-82
2022/08/30 11:49:56;;;;;;;4.93;4.10;;;25.90;99.90;;;;;;5009786;28;20046;-83
2022/08/30 11:52:32;;;;;;;6.32;4.10;;;26.00;99.90;;;;;;5007535;28;20128;-84
2022/08/30 11:55:56;;;;;;;4.50;3.47;;;26.10;99.90;;;;;;5008506;28;20061;-81
2022/08/30 11:58:51;;;;;;;7.20;3.78;;;26.20;99.90;;;;;;4920430;29;20132;-83
2022/08/30 12:01:26;;;;;;;5.68;3.83;;;26.20;99.90;;;;;;4919306;29;20048;-82
2022/08/30 12:04:16;;;;;;;6.68;3.38;;;26.20;99.90;;;;;;5006851;28;20501;-83
2022/08/30 12:06:49;;;;;;;7.57;4.20;;;26.30;99.90;;;;;;5003422;28;20077;-83
2022/08/30 12:09:25;;;;;;;10.68;4.32;;;26.40;99.90;;;;;;5013949;28;20053;-82
2022/08/30 12:11:57;;;;;;;8.20;4.18;;;26.50;99.90;;;;;;5005549;28;20085;-83
2022/08/30 12:14:54;;;;;;;5.28;4.00;;;26.50;99.90;;;;;;5000793;28;20049;-82
2022/08/30 12:20:37;;;;;;;6.43;3.75;;;26.60;99.90;;;;;;5016050;28;20459;-80
2022/08/30 12:23:19;;;;;;;6.20;3.95;;;26.60;99.90;;;;;;5020254;28;20104;-80
2022/08/30 12:25:46;;;;;;;7.20;3.50;;;26.70;99.90;;;;;;5022402;28;20081;-83
2022/08/30 12:28:20;;;;;;;6.07;3.95;;;26.60;99.90;;;;;;5010257;28;20494;-82
2022/08/30 12:30:49;;;;;;;6.20;4.15;;;26.60;99.90;;;;;;5009637;28;20078;-81
2022/08/30 12:33:46;;;;;;;5.65;3.83;;;26.60;99.90;;;;;;5007528;28;20137;-83
2022/08/30 12:36:31;;;;;;;5.53;3.90;;;26.70;99.90;;;;;;5011429;28;20100;-83
2022/08/30 12:39:33;;;;;;;5.43;4.22;;;26.60;99.90;;;;;;4999058;28;20050;-84
2022/08/30 12:42:11;;;;;;;6.63;4.38;;;26.60;99.90;;;;;;4954813;28;20050;-83
2022/08/30 12:44:44;;;;;;;9.50;3.70;;;26.70;99.90;;;;;;5010423;28;20050;-85
2022/08/30 12:47:16;;;;;;;6.80;3.55;;;26.80;99.90;;;;;;4999477;28;20219;-82
2022/08/30 12:49:45;;;;;;;6.30;4.20;;;26.80;99.90;;;;;;5007637;28;20048;-83
2022/08/30 12:52:36;;;;;;;5.55;3.95;;;27.00;99.90;;;;;;5007294;28;20528;-83
2022/08/30 12:55:17;;;;;;;8.30;4.18;;;27.10;99.90;;;;;;4985955;28;20110;-83
2022/08/30 12:57:57;;;;;;;11.82;4.43;;;27.20;99.90;;;;;;5010532;28;20042;-83
2022/08/30 13:00:39;;;;;;;4.80;3.97;;;27.20;99.90;;;;;;4987126;28;20077;-83
2022/08/30 13:03:31;;;;;;;6.05;3.13;;;27.20;99.90;;;;;;5011671;28;20455;-85
2022/08/30 13:05:58;;;;;;;11.07;4.03;;;27.30;99.90;;;;;;5006374;28;20045;-83
2022/08/30 13:08:44;;;;;;;5.10;3.50;;;27.40;99.90;;;;;;5015454;28;20049;-84
2022/08/30 13:11:24;;;;;;;6.20;3.95;;;27.40;99.90;;;;;;5006843;28;20104;-83
2022/08/30 13:14:19;;;;;;;7.25;3.60;;;27.50;99.90;;;;;;5009100;28;20067;-85
2022/08/30 13:16:46;;;;;;;6.47;4.47;;;27.50;99.90;;;;;;4994563;28;20089;-83